Petit Piment 2 — FAD4872 — position and weather

sailwx.info

Track history (hours):
 
Tides and Currents Weather Stations Pressure Air Temp Water Temp Dewpoint Dewpoint Depression Visibility Wind Speed Wind Dir Waves Ship Positions

Petit Piment 2

Last reported at 2017-Sep-09 11:50 UTC. Time now 2017-Sep-23 07:43 UTC.
Position N 46°32' W 001°57'.
Warning: this ship's position is 13 days out of date.

Length 10 m.

Type: Sailing vessel. MMSI: 227398240.

Date/timePositionNaut miles runAvg speedWind from/ knotsBaromVisibWave heightAir tempDewpointWater temp
2017-Sep-09 11:50N 46°32' W 001°57'2 5.3
2017-Sep-09 11:30N 46°33' W 001°59'  
2017-Sep-03 11:38N 47°32' W 002°55'0 3.6
2017-Sep-03 11:30N 47°32' W 002°56'3 6.4
2017-Sep-03 10:59N 47°31' W 003°00'3 6.7
2017-Sep-03 10:30N 47°30' W 003°05'2 0.1
2017-Sep-02 12:07N 47°28' W 003°06'1 6.0
2017-Sep-02 12:00N 47°28' W 003°07'2 3.9
2017-Sep-02 11:30N 47°29' W 003°10'2 3.4
2017-Sep-02 11:00N 47°30' W 003°11'2 3.4
2017-Sep-02 10:30N 47°32' W 003°12'3 5.9
2017-Sep-02 10:00N 47°34' W 003°15'  
Track history (hours):
 
Tides and Currents Weather Stations Pressure Air Temp Water Temp Dewpoint Dewpoint Depression Visibility Wind Speed Wind Dir Waves Ship Positions

Petit Piment 2

Last reported at 2017-Sep-09 11:50 UTC. Time now 2017-Sep-23 07:43 UTC.
Position N 46°32' W 001°57'.
Warning: this ship's position is 13 days out of date.

Length 10 m.

Type: Sailing vessel. MMSI: 227398240.

Date/timePositionNaut miles runAvg speedWind from/ knotsBaromVisibWave heightAir tempDewpointWater temp
2017-Sep-09 11:50N 46°32' W 001°57'2 5.3
2017-Sep-09 11:30N 46°33' W 001°59'  
2017-Sep-03 11:38N 47°32' W 002°55'0 3.6
2017-Sep-03 11:30N 47°32' W 002°56'3 6.4
2017-Sep-03 10:59N 47°31' W 003°00'3 6.7
2017-Sep-03 10:30N 47°30' W 003°05'2 0.1
2017-Sep-02 12:07N 47°28' W 003°06'1 6.0
2017-Sep-02 12:00N 47°28' W 003°07'2 3.9
2017-Sep-02 11:30N 47°29' W 003°10'2 3.4
2017-Sep-02 11:00N 47°30' W 003°11'2 3.4
2017-Sep-02 10:30N 47°32' W 003°12'3 5.9
2017-Sep-02 10:00N 47°34' W 003°15'  

Dump ship's entire track history